sensor_id;sensor_type;location;lat;lon;timestamp;noise_LAeq;noise_LA_min;noise_LA_max;noise_LA01;noise_LA95
67900;Laerm;54700;51.796;10.956;2023-05-07T00:02:21;33.47;28.54;49.18;;
67900;Laerm;54700;51.796;10.956;2023-05-07T00:05:03;46.83;28.49;64.04;;
67900;Laerm;54700;51.796;10.956;2023-05-07T00:07:35;53.43;29.08;67.46;;
67900;Laerm;54700;51.796;10.956;2023-05-07T00:10:03;54.78;28.31;68.65;;
67900;Laerm;54700;51.796;10.956;2023-05-07T00:12:33;36.42;28.20;55.09;;
67900;Laerm;54700;51.796;10.956;2023-05-07T00:15:01;31.57;28.11;47.16;;
67900;Laerm;54700;51.796;10.956;2023-05-07T00:17:29;32.12;28.53;40.11;;
67900;Laerm;54700;51.796;10.956;2023-05-07T00:20:00;32.52;28.26;41.01;;
67900;Laerm;54700;51.796;10.956;2023-05-07T00:22:34;31.71;28.00;40.98;;
67900;Laerm;54700;51.796;10.956;2023-05-07T00:25:03;31.67;28.22;40.01;;
67900;Laerm;54700;51.796;10.956;2023-05-07T00:27:33;48.90;28.01;64.90;;
67900;Laerm;54700;51.796;10.956;2023-05-07T00:30:04;30.30;27.78;41.54;;
67900;Laerm;54700;51.796;10.956;2023-05-07T00:32:38;31.69;27.87;47.74;;
67900;Laerm;54700;51.796;10.956;2023-05-07T00:35:08;47.41;28.03;65.22;;
67900;Laerm;54700;51.796;10.956;2023-05-07T00:37:38;43.12;27.95;61.99;;
67900;Laerm;54700;51.796;10.956;2023-05-07T00:40:07;52.88;28.15;69.69;;
67900;Laerm;54700;51.796;10.956;2023-05-07T00:42:38;45.09;28.18;62.31;;
67900;Laerm;54700;51.796;10.956;2023-05-07T00:45:13;34.76;28.10;49.65;;
67900;Laerm;54700;51.796;10.956;2023-05-07T00:47:45;50.00;28.27;66.19;;
67900;Laerm;54700;51.796;10.956;2023-05-07T00:50:13;51.27;27.89;68.44;;
67900;Laerm;54700;51.796;10.956;2023-05-07T00:52:43;29.77;27.63;40.14;;
67900;Laerm;54700;51.796;10.956;2023-05-07T00:55:10;47.19;27.58;64.59;;
67900;Laerm;54700;51.796;10.956;2023-05-07T00:57:40;54.18;27.97;67.47;;
67900;Laerm;54700;51.796;10.956;2023-05-07T01:00:11;55.85;28.08;69.57;;
67900;Laerm;54700;51.796;10.956;2023-05-07T01:02:39;55.28;27.71;69.28;;
67900;Laerm;54700;51.796;10.956;2023-05-07T01:05:09;53.17;27.81;70.48;;
67900;Laerm;54700;51.796;10.956;2023-05-07T01:07:41;55.16;27.80;69.89;;
67900;Laerm;54700;51.796;10.956;2023-05-07T01:10:09;32.08;27.34;46.62;;
67900;Laerm;54700;51.796;10.956;2023-05-07T01:12:37;29.89;27.59;40.85;;
67900;Laerm;54700;51.796;10.956;2023-05-07T01:15:07;29.63;27.56;39.01;;
67900;Laerm;54700;51.796;10.956;2023-05-07T01:17:37;50.45;27.72;66.78;;
67900;Laerm;54700;51.796;10.956;2023-05-07T01:20:08;29.57;27.67;40.42;;
67900;Laerm;54700;51.796;10.956;2023-05-07T01:22:38;29.77;27.39;41.25;;
67900;Laerm;54700;51.796;10.956;2023-05-07T01:25:17;53.01;27.64;68.32;;
67900;Laerm;54700;51.796;10.956;2023-05-07T01:27:47;30.31;27.72;40.94;;
67900;Laerm;54700;51.796;10.956;2023-05-07T01:30:15;29.89;27.47;39.79;;
67900;Laerm;54700;51.796;10.956;2023-05-07T01:32:48;30.06;28.01;41.34;;
67900;Laerm;54700;51.796;10.956;2023-05-07T01:35:19;53.49;27.80;70.98;;
67900;Laerm;54700;51.796;10.956;2023-05-07T01:37:49;29.99;27.80;40.26;;
67900;Laerm;54700;51.796;10.956;2023-05-07T01:40:18;33.48;27.56;58.91;;
67900;Laerm;54700;51.796;10.956;2023-05-07T01:42:46;31.54;28.13;47.13;;
67900;Laerm;54700;51.796;10.956;2023-05-07T01:45:17;29.99;27.71;41.45;;
67900;Laerm;54700;51.796;10.956;2023-05-07T01:47:45;51.27;27.36;68.12;;
67900;Laerm;54700;51.796;10.956;2023-05-07T01:50:17;29.47;27.17;41.18;;
67900;Laerm;54700;51.796;10.956;2023-05-07T01:52:50;56.28;27.41;70.22;;
67900;Laerm;54700;51.796;10.956;2023-05-07T01:55:20;29.87;27.43;40.67;;
67900;Laerm;54700;51.796;10.956;2023-05-07T01:57:48;34.99;27.93;56.17;;
67900;Laerm;54700;51.796;10.956;2023-05-07T02:00:18;31.54;26.90;50.72;;
67900;Laerm;54700;51.796;10.956;2023-05-07T02:02:54;34.10;27.53;57.15;;
67900;Laerm;54700;51.796;10.956;2023-05-07T02:05:22;54.80;28.04;68.90;;
67900;Laerm;54700;51.796;10.956;2023-05-07T02:07:52;51.30;30.06;65.93;;
67900;Laerm;54700;51.796;10.956;2023-05-07T02:10:19;40.05;27.82;58.29;;
67900;Laerm;54700;51.796;10.956;2023-05-07T02:12:46;38.68;28.19;58.56;;
67900;Laerm;54700;51.796;10.956;2023-05-07T02:15:16;40.50;27.76;60.05;;
67900;Laerm;54700;51.796;10.956;2023-05-07T02:17:58;44.56;27.79;64.64;;
67900;Laerm;54700;51.796;10.956;2023-05-07T02:20:31;50.02;27.37;66.07;;
67900;Laerm;54700;51.796;10.956;2023-05-07T02:23:02;40.69;27.61;57.79;;
67900;Laerm;54700;51.796;10.956;2023-05-07T02:25:29;36.84;27.75;56.80;;
67900;Laerm;54700;51.796;10.956;2023-05-07T02:27:58;40.34;28.08;60.57;;
67900;Laerm;54700;51.796;10.956;2023-05-07T02:30:28;44.06;27.95;62.55;;
67900;Laerm;54700;51.796;10.956;2023-05-07T02:32:58;42.30;28.05;63.78;;
67900;Laerm;54700;51.796;10.956;2023-05-07T02:35:29;53.10;28.17;69.95;;
67900;Laerm;54700;51.796;10.956;2023-05-07T02:37:56;41.95;28.39;62.20;;
67900;Laerm;54700;51.796;10.956;2023-05-07T02:40:31;45.33;28.45;67.98;;
67900;Laerm;54700;51.796;10.956;2023-05-07T02:43:12;51.54;28.77;68.32;;
67900;Laerm;54700;51.796;10.956;2023-05-07T02:45:41;41.53;29.49;56.11;;
67900;Laerm;54700;51.796;10.956;2023-05-07T02:48:11;40.51;29.54;55.99;;
67900;Laerm;54700;51.796;10.956;2023-05-07T02:50:41;42.48;29.33;58.94;;
67900;Laerm;54700;51.796;10.956;2023-05-07T02:53:09;43.60;29.42;58.14;;
67900;Laerm;54700;51.796;10.956;2023-05-07T02:55:40;52.33;30.78;68.04;;
67900;Laerm;54700;51.796;10.956;2023-05-07T02:58:09;47.04;29.79;60.40;;
67900;Laerm;54700;51.796;10.956;2023-05-07T03:00:37;47.73;31.90;60.25;;
67900;Laerm;54700;51.796;10.956;2023-05-07T03:03:08;52.36;32.41;67.30;;
67900;Laerm;54700;51.796;10.956;2023-05-07T03:05:36;48.13;30.85;58.93;;
67900;Laerm;54700;51.796;10.956;2023-05-07T03:08:04;47.65;31.74;60.79;;
67900;Laerm;54700;51.796;10.956;2023-05-07T03:10:31;51.48;32.95;67.61;;
67900;Laerm;54700;51.796;10.956;2023-05-07T03:13:03;52.97;33.63;66.65;;
67900;Laerm;54700;51.796;10.956;2023-05-07T03:15:30;55.13;34.69;68.54;;
67900;Laerm;54700;51.796;10.956;2023-05-07T03:17:57;52.16;34.33;65.96;;
67900;Laerm;54700;51.796;10.956;2023-05-07T03:20:24;56.48;34.23;68.11;;
67900;Laerm;54700;51.796;10.956;2023-05-07T03:22:52;54.96;33.74;67.88;;
67900;Laerm;54700;51.796;10.956;2023-05-07T03:25:20;58.83;32.67;72.87;;
67900;Laerm;54700;51.796;10.956;2023-05-07T03:27:47;54.80;32.55;66.51;;
67900;Laerm;54700;51.796;10.956;2023-05-07T03:30:15;55.26;32.95;67.16;;
67900;Laerm;54700;51.796;10.956;2023-05-07T03:32:42;51.81;33.65;66.09;;
67900;Laerm;54700;51.796;10.956;2023-05-07T03:35:09;54.46;32.95;70.66;;
67900;Laerm;54700;51.796;10.956;2023-05-07T03:37:38;50.89;31.67;70.76;;
67900;Laerm;54700;51.796;10.956;2023-05-07T03:40:06;51.94;32.37;69.44;;
67900;Laerm;54700;51.796;10.956;2023-05-07T03:42:33;54.83;33.11;69.98;;
67900;Laerm;54700;51.796;10.956;2023-05-07T03:45:02;55.68;31.48;71.55;;
67900;Laerm;54700;51.796;10.956;2023-05-07T03:47:30;56.25;31.62;69.64;;
67900;Laerm;54700;51.796;10.956;2023-05-07T03:50:00;54.29;30.08;68.90;;
67900;Laerm;54700;51.796;10.956;2023-05-07T03:52:28;49.99;30.30;66.78;;
67900;Laerm;54700;51.796;10.956;2023-05-07T03:54:56;56.36;30.32;69.01;;
67900;Laerm;54700;51.796;10.956;2023-05-07T03:57:23;50.11;30.54;65.39;;
67900;Laerm;54700;51.796;10.956;2023-05-07T03:59:53;53.18;30.49;70.29;;
67900;Laerm;54700;51.796;10.956;2023-05-07T04:02:20;53.72;30.06;67.46;;
67900;Laerm;54700;51.796;10.956;2023-05-07T04:04:49;36.61;29.95;50.10;;
67900;Laerm;54700;51.796;10.956;2023-05-07T04:07:19;37.53;30.16;53.15;;
67900;Laerm;54700;51.796;10.956;2023-05-07T04:09:46;53.15;31.07;65.77;;
67900;Laerm;54700;51.796;10.956;2023-05-07T04:12:16;36.85;28.80;51.22;;
67900;Laerm;54700;51.796;10.956;2023-05-07T04:14:43;51.40;29.62;67.39;;
67900;Laerm;54700;51.796;10.956;2023-05-07T04:17:11;42.89;29.94;57.63;;
67900;Laerm;54700;51.796;10.956;2023-05-07T04:19:42;40.91;29.75;54.90;;
67900;Laerm;54700;51.796;10.956;2023-05-07T04:22:17;50.72;29.25;64.46;;
67900;Laerm;54700;51.796;10.956;2023-05-07T04:24:55;52.31;30.22;66.26;;
67900;Laerm;54700;51.796;10.956;2023-05-07T04:27:24;57.80;31.57;72.69;;
67900;Laerm;54700;51.796;10.956;2023-05-07T04:29:52;38.35;29.85;53.02;;
67900;Laerm;54700;51.796;10.956;2023-05-07T04:32:24;57.30;30.52;70.69;;
67900;Laerm;54700;51.796;10.956;2023-05-07T04:34:53;38.84;30.03;54.64;;
67900;Laerm;54700;51.796;10.956;2023-05-07T04:37:30;51.74;30.88;67.79;;
67900;Laerm;54700;51.796;10.956;2023-05-07T04:40:00;50.45;31.67;67.86;;
67900;Laerm;54700;51.796;10.956;2023-05-07T04:42:28;55.50;30.12;70.97;;
67900;Laerm;54700;51.796;10.956;2023-05-07T04:45:00;54.10;30.20;68.90;;
67900;Laerm;54700;51.796;10.956;2023-05-07T04:47:28;50.87;29.56;67.35;;
67900;Laerm;54700;51.796;10.956;2023-05-07T04:49:55;57.27;29.71;71.11;;
67900;Laerm;54700;51.796;10.956;2023-05-07T04:52:24;54.15;30.45;68.18;;
67900;Laerm;54700;51.796;10.956;2023-05-07T04:54:53;54.43;29.93;68.78;;
67900;Laerm;54700;51.796;10.956;2023-05-07T04:57:20;52.50;29.90;69.49;;
67900;Laerm;54700;51.796;10.956;2023-05-07T04:59:47;54.78;29.64;71.34;;
67900;Laerm;54700;51.796;10.956;2023-05-07T05:02:14;54.73;30.20;69.73;;
67900;Laerm;54700;51.796;10.956;2023-05-07T05:04:43;49.52;29.73;65.77;;
67900;Laerm;54700;51.796;10.956;2023-05-07T05:07:12;54.11;30.16;67.42;;
67900;Laerm;54700;51.796;10.956;2023-05-07T05:09:41;53.39;30.03;69.00;;
67900;Laerm;54700;51.796;10.956;2023-05-07T05:12:12;52.68;30.38;68.53;;
67900;Laerm;54700;51.796;10.956;2023-05-07T05:14:42;52.12;29.92;68.30;;
67900;Laerm;54700;51.796;10.956;2023-05-07T05:17:10;53.48;30.44;66.40;;
67900;Laerm;54700;51.796;10.956;2023-05-07T05:19:37;52.28;30.25;70.18;;
67900;Laerm;54700;51.796;10.956;2023-05-07T05:22:04;49.65;32.35;68.33;;
67900;Laerm;54700;51.796;10.956;2023-05-07T05:24:33;58.15;31.53;70.62;;
67900;Laerm;54700;51.796;10.956;2023-05-07T05:27:01;55.48;30.57;67.94;;
67900;Laerm;54700;51.796;10.956;2023-05-07T05:29:30;41.28;30.01;56.94;;
67900;Laerm;54700;51.796;10.956;2023-05-07T05:31:57;55.46;31.06;70.90;;
67900;Laerm;54700;51.796;10.956;2023-05-07T05:34:26;57.42;31.19;71.56;;
67900;Laerm;54700;51.796;10.956;2023-05-07T05:36:53;58.49;31.18;70.59;;
67900;Laerm;54700;51.796;10.956;2023-05-07T05:39:20;58.83;31.32;72.05;;
67900;Laerm;54700;51.796;10.956;2023-05-07T05:41:50;57.63;30.92;71.30;;
67900;Laerm;54700;51.796;10.956;2023-05-07T05:44:20;53.39;30.28;70.19;;
67900;Laerm;54700;51.796;10.956;2023-05-07T05:46:49;49.55;30.40;67.11;;
67900;Laerm;54700;51.796;10.956;2023-05-07T05:49:16;54.62;30.13;67.85;;
67900;Laerm;54700;51.796;10.956;2023-05-07T05:51:46;54.33;31.03;69.24;;
67900;Laerm;54700;51.796;10.956;2023-05-07T05:54:14;57.53;30.46;72.22;;
67900;Laerm;54700;51.796;10.956;2023-05-07T05:56:42;48.68;32.05;61.91;;
67900;Laerm;54700;51.796;10.956;2023-05-07T05:59:10;49.34;31.10;66.28;;
67900;Laerm;54700;51.796;10.956;2023-05-07T06:01:40;55.74;30.30;68.55;;
67900;Laerm;54700;51.796;10.956;2023-05-07T06:04:09;54.19;30.12;67.24;;
67900;Laerm;54700;51.796;10.956;2023-05-07T06:06:37;52.38;30.68;65.49;;
67900;Laerm;54700;51.796;10.956;2023-05-07T06:09:04;50.76;30.07;66.84;;
67900;Laerm;54700;51.796;10.956;2023-05-07T06:11:31;54.39;29.93;68.95;;
67900;Laerm;54700;51.796;10.956;2023-05-07T06:13:59;56.53;32.33;69.58;;
67900;Laerm;54700;51.796;10.956;2023-05-07T06:16:26;54.37;31.50;69.13;;
67900;Laerm;54700;51.796;10.956;2023-05-07T06:18:53;56.04;30.89;69.12;;
67900;Laerm;54700;51.796;10.956;2023-05-07T06:21:22;55.84;31.31;70.09;;
67900;Laerm;54700;51.796;10.956;2023-05-07T06:23:50;56.46;30.98;71.93;;
67900;Laerm;54700;51.796;10.956;2023-05-07T06:26:17;53.45;31.74;69.69;;
67900;Laerm;54700;51.796;10.956;2023-05-07T06:28:45;55.27;33.84;68.48;;
67900;Laerm;54700;51.796;10.956;2023-05-07T06:31:14;60.02;32.22;74.47;;
67900;Laerm;54700;51.796;10.956;2023-05-07T06:33:42;60.82;31.58;77.33;;
67900;Laerm;54700;51.796;10.956;2023-05-07T06:36:09;55.47;32.87;69.02;;
67900;Laerm;54700;51.796;10.956;2023-05-07T06:38:38;57.58;32.04;69.74;;
67900;Laerm;54700;51.796;10.956;2023-05-07T06:41:08;56.94;31.62;72.21;;
67900;Laerm;54700;51.796;10.956;2023-05-07T06:43:35;55.69;31.46;69.65;;
67900;Laerm;54700;51.796;10.956;2023-05-07T06:46:05;59.70;31.67;74.51;;
67900;Laerm;54700;51.796;10.956;2023-05-07T06:48:32;53.84;31.87;67.43;;
67900;Laerm;54700;51.796;10.956;2023-05-07T06:50:59;58.71;33.15;69.75;;
67900;Laerm;54700;51.796;10.956;2023-05-07T06:53:26;59.05;32.59;73.72;;
67900;Laerm;54700;51.796;10.956;2023-05-07T06:55:55;53.49;32.88;68.71;;
67900;Laerm;54700;51.796;10.956;2023-05-07T06:58:22;59.24;30.89;69.44;;
67900;Laerm;54700;51.796;10.956;2023-05-07T07:00:51;56.21;31.25;70.72;;
67900;Laerm;54700;51.796;10.956;2023-05-07T07:03:18;58.02;31.63;71.94;;
67900;Laerm;54700;51.796;10.956;2023-05-07T07:05:45;51.56;31.70;66.08;;
67900;Laerm;54700;51.796;10.956;2023-05-07T07:08:12;59.40;32.25;70.98;;
67900;Laerm;54700;51.796;10.956;2023-05-07T07:10:40;55.95;32.22;68.02;;
67900;Laerm;54700;51.796;10.956;2023-05-07T07:13:08;58.14;31.95;69.26;;
67900;Laerm;54700;51.796;10.956;2023-05-07T07:15:37;58.28;32.67;72.21;;
67900;Laerm;54700;51.796;10.956;2023-05-07T07:18:05;60.24;35.35;70.93;;
67900;Laerm;54700;51.796;10.956;2023-05-07T07:20:32;56.50;32.08;67.14;;
67900;Laerm;54700;51.796;10.956;2023-05-07T07:23:00;59.09;34.03;70.06;;
67900;Laerm;54700;51.796;10.956;2023-05-07T07:25:27;59.19;37.02;71.22;;
67900;Laerm;54700;51.796;10.956;2023-05-07T07:27:55;57.85;31.31;72.66;;
67900;Laerm;54700;51.796;10.956;2023-05-07T07:30:23;58.54;32.19;71.62;;
67900;Laerm;54700;51.796;10.956;2023-05-07T07:32:53;61.95;33.55;72.17;;
67900;Laerm;54700;51.796;10.956;2023-05-07T07:35:25;57.74;31.70;69.82;;
67900;Laerm;54700;51.796;10.956;2023-05-07T07:37:52;60.56;32.29;72.19;;
67900;Laerm;54700;51.796;10.956;2023-05-07T07:40:19;57.35;32.44;69.66;;
67900;Laerm;54700;51.796;10.956;2023-05-07T07:42:46;60.63;32.67;71.03;;
67900;Laerm;54700;51.796;10.956;2023-05-07T07:45:13;52.57;31.97;73.20;;
67900;Laerm;54700;51.796;10.956;2023-05-07T07:47:42;61.09;36.63;72.75;;
67900;Laerm;54700;51.796;10.956;2023-05-07T07:50:09;61.72;37.49;72.04;;
67900;Laerm;54700;51.796;10.956;2023-05-07T07:52:36;61.19;34.20;71.53;;
67900;Laerm;54700;51.796;10.956;2023-05-07T07:55:05;61.65;36.95;69.96;;
67900;Laerm;54700;51.796;10.956;2023-05-07T07:57:33;61.50;34.02;71.34;;
67900;Laerm;54700;51.796;10.956;2023-05-07T08:00:00;63.33;37.90;72.48;;
67900;Laerm;54700;51.796;10.956;2023-05-07T08:02:27;60.46;35.17;70.61;;
67900;Laerm;54700;51.796;10.956;2023-05-07T08:04:55;49.49;32.01;63.71;;
67900;Laerm;54700;51.796;10.956;2023-05-07T08:07:22;61.09;36.35;71.17;;
67900;Laerm;54700;51.796;10.956;2023-05-07T08:09:49;59.84;35.79;68.24;;
67900;Laerm;54700;51.796;10.956;2023-05-07T08:12:17;58.74;33.10;69.60;;
67900;Laerm;54700;51.796;10.956;2023-05-07T08:14:44;58.57;32.24;69.42;;
67900;Laerm;54700;51.796;10.956;2023-05-07T08:17:11;58.42;33.98;68.35;;
67900;Laerm;54700;51.796;10.956;2023-05-07T08:19:41;59.01;33.37;74.85;;
67900;Laerm;54700;51.796;10.956;2023-05-07T08:22:10;60.66;35.07;71.47;;
67900;Laerm;54700;51.796;10.956;2023-05-07T08:24:38;59.88;32.83;70.75;;
67900;Laerm;54700;51.796;10.956;2023-05-07T08:27:05;60.99;37.96;70.86;;
67900;Laerm;54700;51.796;10.956;2023-05-07T08:29:32;60.93;34.96;72.04;;
67900;Laerm;54700;51.796;10.956;2023-05-07T08:31:59;63.73;45.40;75.79;;
67900;Laerm;54700;51.796;10.956;2023-05-07T08:34:26;64.40;35.71;78.71;;
67900;Laerm;54700;51.796;10.956;2023-05-07T08:36:53;60.43;37.73;72.66;;
67900;Laerm;54700;51.796;10.956;2023-05-07T08:39:22;60.56;36.56;71.99;;
67900;Laerm;54700;51.796;10.956;2023-05-07T08:41:50;58.19;32.24;69.37;;
67900;Laerm;54700;51.796;10.956;2023-05-07T08:44:22;59.52;36.98;69.85;;
67900;Laerm;54700;51.796;10.956;2023-05-07T08:46:51;60.78;35.00;70.95;;
67900;Laerm;54700;51.796;10.956;2023-05-07T08:49:20;60.52;35.78;70.66;;
67900;Laerm;54700;51.796;10.956;2023-05-07T08:51:47;61.88;42.16;71.07;;
67900;Laerm;54700;51.796;10.956;2023-05-07T08:54:16;61.85;36.84;74.54;;
67900;Laerm;54700;51.796;10.956;2023-05-07T08:56:44;57.21;34.37;69.50;;
67900;Laerm;54700;51.796;10.956;2023-05-07T08:59:11;61.81;39.03;74.57;;
67900;Laerm;54700;51.796;10.956;2023-05-07T09:01:39;59.46;37.23;71.41;;
67900;Laerm;54700;51.796;10.956;2023-05-07T09:04:06;61.81;37.34;71.35;;
67900;Laerm;54700;51.796;10.956;2023-05-07T09:06:33;59.18;35.88;70.72;;
67900;Laerm;54700;51.796;10.956;2023-05-07T09:09:03;62.02;40.16;73.21;;
67900;Laerm;54700;51.796;10.956;2023-05-07T09:11:31;60.79;35.86;74.00;;
67900;Laerm;54700;51.796;10.956;2023-05-07T09:13:59;58.47;33.61;73.54;;
67900;Laerm;54700;51.796;10.956;2023-05-07T09:16:30;59.68;35.44;73.67;;
67900;Laerm;54700;51.796;10.956;2023-05-07T09:18:59;62.39;42.57;70.83;;
67900;Laerm;54700;51.796;10.956;2023-05-07T09:21:29;57.84;35.00;70.63;;
67900;Laerm;54700;51.796;10.956;2023-05-07T09:23:57;61.17;37.16;71.57;;
67900;Laerm;54700;51.796;10.956;2023-05-07T09:26:25;60.17;36.95;72.73;;
67900;Laerm;54700;51.796;10.956;2023-05-07T09:28:53;59.03;37.91;71.73;;
67900;Laerm;54700;51.796;10.956;2023-05-07T09:31:23;60.13;36.12;73.23;;
67900;Laerm;54700;51.796;10.956;2023-05-07T09:33:54;61.12;35.88;76.59;;
67900;Laerm;54700;51.796;10.956;2023-05-07T09:36:21;62.82;39.72;74.09;;
67900;Laerm;54700;51.796;10.956;2023-05-07T09:38:48;58.88;39.24;68.54;;
67900;Laerm;54700;51.796;10.956;2023-05-07T09:41:16;60.05;37.12;72.25;;
67900;Laerm;54700;51.796;10.956;2023-05-07T09:43:43;61.39;35.93;71.90;;
67900;Laerm;54700;51.796;10.956;2023-05-07T09:46:12;59.37;34.97;72.34;;
67900;Laerm;54700;51.796;10.956;2023-05-07T09:48:42;55.34;33.73;68.09;;
67900;Laerm;54700;51.796;10.956;2023-05-07T09:51:20;61.10;37.24;70.05;;
67900;Laerm;54700;51.796;10.956;2023-05-07T09:53:49;61.13;35.13;70.38;;
67900;Laerm;54700;51.796;10.956;2023-05-07T09:56:18;62.06;37.74;72.21;;
67900;Laerm;54700;51.796;10.956;2023-05-07T09:58:46;60.34;37.08;72.20;;
67900;Laerm;54700;51.796;10.956;2023-05-07T10:01:13;56.45;35.54;67.70;;
67900;Laerm;54700;51.796;10.956;2023-05-07T10:03:43;61.68;33.88;71.95;;
67900;Laerm;54700;51.796;10.956;2023-05-07T10:06:11;58.41;34.57;69.45;;
67900;Laerm;54700;51.796;10.956;2023-05-07T10:08:40;60.11;35.83;70.44;;
67900;Laerm;54700;51.796;10.956;2023-05-07T10:11:09;60.47;33.57;72.93;;
67900;Laerm;54700;51.796;10.956;2023-05-07T10:13:37;60.43;37.66;71.01;;
67900;Laerm;54700;51.796;10.956;2023-05-07T10:16:06;57.62;35.84;70.83;;
67900;Laerm;54700;51.796;10.956;2023-05-07T10:18:35;62.40;38.30;72.24;;
67900;Laerm;54700;51.796;10.956;2023-05-07T10:21:11;59.89;36.78;70.21;;
67900;Laerm;54700;51.796;10.956;2023-05-07T10:23:42;58.04;34.80;67.87;;
67900;Laerm;54700;51.796;10.956;2023-05-07T10:26:14;57.29;34.91;73.19;;
67900;Laerm;54700;51.796;10.956;2023-05-07T10:28:46;61.73;32.71;71.04;;
67900;Laerm;54700;51.796;10.956;2023-05-07T10:31:28;60.80;37.06;70.28;;
67900;Laerm;54700;51.796;10.956;2023-05-07T10:34:14;60.61;39.87;69.96;;
67900;Laerm;54700;51.796;10.956;2023-05-07T10:36:45;60.65;36.72;70.41;;
67900;Laerm;54700;51.796;10.956;2023-05-07T10:39:19;58.04;34.45;69.04;;
67900;Laerm;54700;51.796;10.956;2023-05-07T10:41:47;62.02;36.09;71.01;;
67900;Laerm;54700;51.796;10.956;2023-05-07T10:44:25;57.87;35.56;67.84;;
67900;Laerm;54700;51.796;10.956;2023-05-07T10:47:08;59.72;34.39;68.78;;
67900;Laerm;54700;51.796;10.956;2023-05-07T10:56:25;59.30;32.35;70.32;;
67900;Laerm;54700;51.796;10.956;2023-05-07T10:58:53;57.54;36.34;70.37;;
67900;Laerm;54700;51.796;10.956;2023-05-07T11:04:21;60.53;36.24;79.21;;
67900;Laerm;54700;51.796;10.956;2023-05-07T11:10:12;60.68;37.12;73.07;;
67900;Laerm;54700;51.796;10.956;2023-05-07T11:12:50;58.57;37.98;71.06;;
67900;Laerm;54700;51.796;10.956;2023-05-07T11:15:40;62.53;36.15;72.32;;
67900;Laerm;54700;51.796;10.956;2023-05-07T11:18:12;57.54;35.60;69.66;;
67900;Laerm;54700;51.796;10.956;2023-05-07T11:20:57;59.69;35.39;70.75;;
67900;Laerm;54700;51.796;10.956;2023-05-07T11:26:51;62.23;35.98;72.14;;
67900;Laerm;54700;51.796;10.956;2023-05-07T11:29:25;58.41;35.73;72.93;;
67900;Laerm;54700;51.796;10.956;2023-05-07T11:31:54;60.00;37.16;71.63;;
67900;Laerm;54700;51.796;10.956;2023-05-07T11:34:24;57.73;35.18;72.54;;
67900;Laerm;54700;51.796;10.956;2023-05-07T11:36:53;58.26;36.64;70.36;;
67900;Laerm;54700;51.796;10.956;2023-05-07T11:39:24;61.06;35.68;71.12;;
67900;Laerm;54700;51.796;10.956;2023-05-07T11:41:55;60.96;36.29;72.15;;
67900;Laerm;54700;51.796;10.956;2023-05-07T11:44:23;58.93;35.46;71.29;;
67900;Laerm;54700;51.796;10.956;2023-05-07T11:46:51;57.67;35.49;73.62;;
67900;Laerm;54700;51.796;10.956;2023-05-07T11:49:18;58.51;34.25;69.70;;
67900;Laerm;54700;51.796;10.956;2023-05-07T11:51:45;63.13;39.67;76.06;;
67900;Laerm;54700;51.796;10.956;2023-05-07T11:54:16;60.57;37.93;71.06;;
67900;Laerm;54700;51.796;10.956;2023-05-07T11:56:44;60.63;36.06;73.34;;
67900;Laerm;54700;51.796;10.956;2023-05-07T11:59:18;60.39;37.69;72.32;;
67900;Laerm;54700;51.796;10.956;2023-05-07T12:01:46;58.25;35.31;72.11;;
67900;Laerm;54700;51.796;10.956;2023-05-07T12:04:19;57.16;33.66;70.37;;
67900;Laerm;54700;51.796;10.956;2023-05-07T12:06:55;62.75;33.38;83.22;;
67900;Laerm;54700;51.796;10.956;2023-05-07T12:09:23;59.71;38.20;71.97;;
67900;Laerm;54700;51.796;10.956;2023-05-07T12:11:55;58.06;36.23;71.81;;
67900;Laerm;54700;51.796;10.956;2023-05-07T12:14:27;60.37;33.39;69.42;;
67900;Laerm;54700;51.796;10.956;2023-05-07T12:16:59;59.84;33.37;70.48;;
67900;Laerm;54700;51.796;10.956;2023-05-07T12:19:28;60.32;35.15;69.97;;
67900;Laerm;54700;51.796;10.956;2023-05-07T12:22:00;62.64;36.40;79.10;;
67900;Laerm;54700;51.796;10.956;2023-05-07T12:24:28;60.11;36.29;71.26;;
67900;Laerm;54700;51.796;10.956;2023-05-07T12:26:55;60.36;36.61;69.51;;
67900;Laerm;54700;51.796;10.956;2023-05-07T12:29:23;61.49;37.53;71.37;;
67900;Laerm;54700;51.796;10.956;2023-05-07T12:31:50;62.49;36.24;75.29;;
67900;Laerm;54700;51.796;10.956;2023-05-07T12:34:17;61.41;35.35;75.90;;
67900;Laerm;54700;51.796;10.956;2023-05-07T12:36:44;61.52;37.63;69.63;;
67900;Laerm;54700;51.796;10.956;2023-05-07T12:39:14;57.63;34.38;71.39;;
67900;Laerm;54700;51.796;10.956;2023-05-07T12:41:55;58.16;35.41;71.89;;
67900;Laerm;54700;51.796;10.956;2023-05-07T12:44:29;59.60;37.26;71.42;;
67900;Laerm;54700;51.796;10.956;2023-05-07T12:46:56;62.16;38.81;73.64;;
67900;Laerm;54700;51.796;10.956;2023-05-07T12:49:24;61.46;36.10;70.40;;
67900;Laerm;54700;51.796;10.956;2023-05-07T12:51:54;60.43;34.13;71.09;;
67900;Laerm;54700;51.796;10.956;2023-05-07T12:54:28;59.08;33.70;69.51;;
67900;Laerm;54700;51.796;10.956;2023-05-07T12:57:03;59.14;33.80;69.38;;
67900;Laerm;54700;51.796;10.956;2023-05-07T12:59:33;57.94;33.91;71.07;;
67900;Laerm;54700;51.796;10.956;2023-05-07T13:02:01;62.37;37.34;72.92;;
67900;Laerm;54700;51.796;10.956;2023-05-07T13:04:29;59.59;36.65;69.00;;
67900;Laerm;54700;51.796;10.956;2023-05-07T13:06:56;59.29;36.11;69.60;;
67900;Laerm;54700;51.796;10.956;2023-05-07T13:09:29;61.19;35.69;72.30;;
67900;Laerm;54700;51.796;10.956;2023-05-07T13:11:56;60.99;38.65;71.42;;
67900;Laerm;54700;51.796;10.956;2023-05-07T13:14:28;60.44;39.11;71.78;;
67900;Laerm;54700;51.796;10.956;2023-05-07T13:16:59;62.28;38.31;72.43;;
67900;Laerm;54700;51.796;10.956;2023-05-07T13:19:27;60.27;39.66;71.40;;
67900;Laerm;54700;51.796;10.956;2023-05-07T13:21:54;59.84;37.70;70.67;;
67900;Laerm;54700;51.796;10.956;2023-05-07T13:24:27;62.63;39.01;72.57;;
67900;Laerm;54700;51.796;10.956;2023-05-07T13:26:58;62.43;41.91;71.36;;
67900;Laerm;54700;51.796;10.956;2023-05-07T13:29:25;59.95;35.32;69.99;;
67900;Laerm;54700;51.796;10.956;2023-05-07T13:31:56;60.20;33.37;71.15;;
67900;Laerm;54700;51.796;10.956;2023-05-07T13:34:28;62.59;37.14;73.34;;
67900;Laerm;54700;51.796;10.956;2023-05-07T13:36:59;58.94;34.21;71.89;;
67900;Laerm;54700;51.796;10.956;2023-05-07T13:39:28;56.92;33.46;69.79;;
67900;Laerm;54700;51.796;10.956;2023-05-07T13:41:56;59.20;34.90;70.72;;
67900;Laerm;54700;51.796;10.956;2023-05-07T13:44:23;57.59;32.66;68.10;;
67900;Laerm;54700;51.796;10.956;2023-05-07T13:46:51;61.40;41.28;70.54;;
67900;Laerm;54700;51.796;10.956;2023-05-07T13:49:18;58.54;33.84;69.36;;
67900;Laerm;54700;51.796;10.956;2023-05-07T13:51:48;59.85;37.37;69.04;;
67900;Laerm;54700;51.796;10.956;2023-05-07T13:54:15;59.48;33.77;72.28;;
67900;Laerm;54700;51.796;10.956;2023-05-07T13:56:42;60.02;35.10;72.13;;
67900;Laerm;54700;51.796;10.956;2023-05-07T13:59:10;62.58;37.11;72.64;;
67900;Laerm;54700;51.796;10.956;2023-05-07T14:01:40;60.82;41.38;72.98;;